Impacts METAR Board
IDs:

KLAX - Los Angeles Intl, CA, US

Updated at: 2000 UTC 21 Sep 2021
Potential Impact None Slight Moderate High
Time 21/08Z 21/09Z 21/10Z 21/11Z 21/12Z 21/13Z 21/14Z 21/15Z 21/16Z 21/17Z 21/18Z 21/19Z 21/20Z
Temp68 66 66 65 65 65 65 69 71 76 79 82 79
Dewpt62 62 62 61 61 61 62 63 63 62 63 63 63
Altim30.00 30.01 30.01 30.01 30.02 30.03 30.04 30.05 30.07 30.07 30.07 30.06 30.06
VIS10 10 10 10 10 9 7 8 7 8 8 9 9
CIG-- -- -- -- -- -- -- -- -- -- -- -- --
CoverCLRCLRFEWFEWFEWFEWSCTSCTFEWFEWFEWFEWCLR
FltCatVFRVFRVFRVFRVFRVFRVFRVFRVFRVFRVFRVFRVFR
WX--------------------------
WDir150110800801007002500250250270
WSpd5 3 3 0 3 4 3 0 5 0 6 8 12
WGst-- -- -- -- -- -- -- -- -- -- -- -- --
Raw hourly METARs
KLAX 210753Z 15005KT 10SM CLR 20/17 A3000 RMK AO2 SLP157 T02000167 402610161
KLAX 210853Z 11003KT 10SM CLR 19/17 A3001 RMK AO2 SLP159 T01890167 51008
KLAX 210953Z 08003KT 10SM FEW007 19/17 A3001 RMK AO2 SLP160 T01890167
KLAX 211053Z 00000KT 10SM FEW007 18/16 A3001 RMK AO2 SLP158 T01830161
KLAX 211153Z 08003KT 10SM FEW007 18/16 A3002 RMK AO2 SLP161 T01830161 10206 20183 53002
KLAX 211253Z 10004KT 9SM FEW007 18/16 A3003 RMK AO2 SLP166 T01830161
KLAX 211353Z 07003KT 7SM SCT007 18/17 A3004 RMK AO2 SLP171 T01830167
KLAX 211453Z 00000KT 8SM SCT008 21/17 A3005 RMK AO2 SLP175 T02060172 53014
KLAX 211553Z 25005KT 7SM FEW010 22/17 A3007 RMK AO2 SLP180 T02170172
KLAX 211653Z 00000KT 8SM FEW010 24/17 A3007 RMK AO2 SLP182 T02440167
KLAX 211753Z 25006KT 8SM FEW010 26/17 A3007 RMK AO2 SLP181 T02610172 10261 20178 51007
KLAX 211853Z 25008KT 9SM FEW010 28/17 A3006 RMK AO2 SLP179 T02780172
KLAX 211953Z 27012KT 9SM CLR 26/17 A3006 RMK AO2 SLP175 T02610172



Page loaded:  20:32 UTC  |   01:32 PM Pacific  |   02:32 PM Mountain  |   03:32 PM Central  |   04:32 PM Eastern

 

ADVISORIES

FORECASTS

FORECASTS

OBSERVATIONS

USER TOOLS

ABOUT US